Time;durP1;ratioP1;P1;durP2;ratioP2;P2;SDS_P1;SDS_P2;PMS_P1;PMS_P2;Temp;Humidity;BMP_temperature;BMP_pressure;BME280_temperature;BME280_humidity;BME280_pressure;Samples;Min_cycle;Max_cycle;Signal;HPM_P1;HPM_P2
2022/11/27 00:02:19;;;;;;;18.40;4.97;;;7.00;99.90;;;;;;5033678;28;20201;-67
2022/11/27 00:04:46;;;;;;;10.90;4.73;;;7.10;99.90;;;;;;5029409;28;21057;-68
2022/11/27 00:07:12;;;;;;;16.00;4.70;;;7.00;99.90;;;;;;5045132;28;20218;-67
2022/11/27 00:09:39;;;;;;;12.07;4.70;;;7.10;99.90;;;;;;5033122;28;20862;-67
2022/11/27 00:12:06;;;;;;;11.47;4.70;;;7.10;99.90;;;;;;5041280;28;20569;-68
2022/11/27 00:14:33;;;;;;;22.43;5.70;;;7.10;99.90;;;;;;5021182;28;20208;-68
2022/11/27 00:17:00;;;;;;;12.67;4.83;;;7.10;99.90;;;;;;5036246;28;20205;-67
2022/11/27 00:19:28;;;;;;;11.17;4.50;;;7.00;99.90;;;;;;5051078;28;20678;-65
2022/11/27 00:21:55;;;;;;;10.93;4.53;;;7.00;99.90;;;;;;5032393;28;21466;-65
2022/11/27 00:24:23;;;;;;;13.63;4.87;;;7.00;99.90;;;;;;5042884;28;20220;-65
2022/11/27 00:26:50;;;;;;;12.57;4.00;;;7.00;99.90;;;;;;5040875;28;20220;-65
2022/11/27 00:29:17;;;;;;;11.70;4.13;;;7.00;99.90;;;;;;5022519;28;20228;-65
2022/11/27 00:31:43;;;;;;;17.87;4.50;;;7.00;99.90;;;;;;5018629;28;20227;-65
2022/11/27 00:34:11;;;;;;;14.23;4.60;;;7.00;99.90;;;;;;5039159;28;20201;-65
2022/11/27 00:36:39;;;;;;;12.47;4.57;;;7.00;99.90;;;;;;5033179;28;20201;-68
2022/11/27 00:39:06;;;;;;;11.70;3.70;;;7.00;99.90;;;;;;5032020;28;20682;-64
2022/11/27 00:41:33;;;;;;;12.17;4.63;;;7.00;99.90;;;;;;5044999;28;20617;-65
2022/11/27 00:44:00;;;;;;;15.43;5.20;;;7.00;99.90;;;;;;5009303;28;20221;-67
2022/11/27 00:46:29;;;;;;;13.90;4.33;;;7.10;99.90;;;;;;5037019;28;20228;-67
2022/11/27 00:48:56;;;;;;;13.70;4.63;;;7.10;99.90;;;;;;5031644;28;20228;-68
2022/11/27 00:51:24;;;;;;;8.13;4.20;;;7.00;99.90;;;;;;5032067;28;20197;-67
2022/11/27 00:53:53;;;;;;;14.77;4.23;;;7.00;99.90;;;;;;5032350;28;20201;-67
2022/11/27 00:56:22;;;;;;;9.90;4.20;;;7.00;99.90;;;;;;5044819;28;20203;-67
2022/11/27 00:58:49;;;;;;;12.20;4.03;;;7.00;99.90;;;;;;5017220;28;20678;-68
2022/11/27 01:01:18;;;;;;;9.97;4.00;;;7.00;99.90;;;;;;5032100;28;20220;-67
2022/11/27 01:03:46;;;;;;;15.00;4.50;;;7.00;99.90;;;;;;5029224;28;20204;-68
2022/11/27 01:06:14;;;;;;;13.63;4.97;;;7.00;99.90;;;;;;5045709;28;20208;-66
2022/11/27 01:08:41;;;;;;;13.30;4.80;;;7.00;99.90;;;;;;5029822;28;20209;-65
2022/11/27 01:11:14;;;;;;;10.30;3.63;;;7.00;99.90;;;;;;5032848;28;20204;-65
2022/11/27 01:13:41;;;;;;;14.13;4.53;;;7.00;99.90;;;;;;5039863;28;20201;-66
2022/11/27 01:16:10;;;;;;;13.87;4.50;;;7.00;99.90;;;;;;5016035;28;20222;-65
2022/11/27 01:18:38;;;;;;;15.57;4.53;;;7.00;99.90;;;;;;5032853;28;20559;-65
2022/11/27 01:21:06;;;;;;;11.43;4.00;;;7.00;99.90;;;;;;5039955;28;20216;-65
2022/11/27 01:23:33;;;;;;;15.13;4.40;;;7.00;99.90;;;;;;5030612;28;20197;-66
2022/11/27 01:26:00;;;;;;;12.07;4.77;;;7.00;99.90;;;;;;5030724;28;20209;-65
2022/11/27 01:28:29;;;;;;;12.20;4.60;;;7.00;99.90;;;;;;5037495;28;20221;-65
2022/11/27 01:30:56;;;;;;;11.90;4.03;;;6.90;99.90;;;;;;5013670;28;20205;-65
2022/11/27 01:33:23;;;;;;;8.53;3.83;;;6.90;99.90;;;;;;5030101;28;20584;-65
2022/11/27 01:35:55;;;;;;;15.73;4.73;;;6.90;99.90;;;;;;5033697;28;20197;-65
2022/11/27 01:38:22;;;;;;;10.90;4.20;;;7.00;99.90;;;;;;5030126;28;20197;-65
2022/11/27 01:40:49;;;;;;;11.70;4.17;;;6.90;99.90;;;;;;5016482;28;21498;-65
2022/11/27 01:43:16;;;;;;;7.40;3.97;;;6.90;99.90;;;;;;5018577;28;20809;-65
2022/11/27 01:45:45;;;;;;;7.57;3.67;;;6.90;99.90;;;;;;4991398;28;20213;-67
2022/11/27 01:48:14;;;;;;;13.30;3.93;;;6.90;99.90;;;;;;5013887;28;20229;-68
2022/11/27 01:50:41;;;;;;;8.00;3.53;;;6.80;99.90;;;;;;5012679;28;21042;-68
2022/11/27 01:53:14;;;;;;;10.40;4.93;;;6.80;99.90;;;;;;5016247;28;20236;-68
2022/11/27 01:55:45;;;;;;;7.50;3.80;;;6.80;99.90;;;;;;5014919;28;20209;-68
2022/11/27 01:58:15;;;;;;;10.80;3.93;;;6.80;99.90;;;;;;5018727;28;20201;-67
2022/11/27 02:00:41;;;;;;;13.17;3.93;;;6.70;99.90;;;;;;4993342;28;20228;-68
2022/11/27 02:03:10;;;;;;;14.20;4.20;;;6.70;99.90;;;;;;5013389;28;20204;-67
2022/11/27 02:05:37;;;;;;;14.70;4.23;;;6.60;99.90;;;;;;5025829;28;20221;-67
2022/11/27 02:08:07;;;;;;;11.77;4.13;;;6.60;99.90;;;;;;5013094;28;20233;-68
2022/11/27 02:10:46;;;;;;;14.80;3.90;;;6.50;99.90;;;;;;5001368;28;20223;-67
2022/11/27 02:13:18;;;;;;;8.93;4.20;;;6.50;99.90;;;;;;5023432;28;20193;-68
2022/11/27 02:15:50;;;;;;;7.77;3.67;;;6.40;99.90;;;;;;5023418;28;20220;-67
2022/11/27 02:18:25;;;;;;;8.50;3.57;;;6.40;99.90;;;;;;4999572;28;20202;-67
2022/11/27 02:20:59;;;;;;;10.23;3.23;;;6.30;99.90;;;;;;5025762;28;20595;-67
2022/11/27 02:24:00;;;;;;;10.97;3.80;;;6.30;99.90;;;;;;5011357;28;20203;-67
2022/11/27 02:27:02;;;;;;;8.80;3.83;;;6.30;99.90;;;;;;5001488;28;20534;-67
2022/11/27 02:29:33;;;;;;;10.37;3.87;;;6.20;99.90;;;;;;5022511;28;20200;-68
2022/11/27 02:32:08;;;;;;;11.87;3.43;;;6.20;99.90;;;;;;4998311;28;21018;-68
2022/11/27 02:34:43;;;;;;;8.03;3.50;;;7.30;99.90;;;;;;5017141;28;20220;-67
2022/11/27 02:37:17;;;;;;;9.30;3.60;;;6.10;99.90;;;;;;5016085;28;20229;-67
2022/11/27 02:39:51;;;;;;;6.57;3.27;;;6.00;99.90;;;;;;5022575;28;20255;-69
2022/11/27 02:42:20;;;;;;;11.07;3.50;;;6.00;99.90;;;;;;5035421;28;20302;-68
2022/11/27 02:44:58;;;;;;;7.93;3.80;;;6.00;99.90;;;;;;5037016;28;20219;-67
2022/11/27 02:47:28;;;;;;;9.47;4.00;;;6.00;99.90;;;;;;5048515;28;20225;-67
2022/11/27 02:49:55;;;;;;;7.13;3.60;;;5.90;99.90;;;;;;5012768;28;20674;-68
2022/11/27 02:52:25;;;;;;;11.77;3.40;;;5.90;99.90;;;;;;5038120;28;20209;-67
2022/11/27 02:54:57;;;;;;;7.87;3.00;;;5.80;99.90;;;;;;5043301;28;20592;-67
2022/11/27 02:57:26;;;;;;;5.27;3.67;;;5.90;99.90;;;;;;5023456;28;20216;-67
2022/11/27 02:59:57;;;;;;;9.30;3.47;;;5.90;99.90;;;;;;5045644;28;20681;-68
2022/11/27 03:02:28;;;;;;;6.93;3.27;;;5.80;99.90;;;;;;5046277;28;20522;-67
2022/11/27 03:04:59;;;;;;;7.43;3.23;;;5.70;99.90;;;;;;5011905;28;20209;-67
2022/11/27 03:07:32;;;;;;;6.83;3.40;;;5.60;99.90;;;;;;5026946;28;20261;-68
2022/11/27 03:10:04;;;;;;;6.03;3.03;;;5.40;99.90;;;;;;5031079;28;20216;-67
2022/11/27 03:12:31;;;;;;;6.57;3.10;;;5.30;99.90;;;;;;5035559;28;20208;-67
2022/11/27 03:14:59;;;;;;;12.87;3.67;;;5.40;99.90;;;;;;5017659;28;20707;-68
2022/11/27 03:17:41;;;;;;;6.63;3.20;;;5.40;99.90;;;;;;5046256;28;20200;-68
2022/11/27 03:20:12;;;;;;;11.17;3.50;;;5.40;99.90;;;;;;5008765;28;20721;-67
2022/11/27 03:22:39;;;;;;;8.80;3.33;;;5.30;99.90;;;;;;5048673;28;20203;-67
2022/11/27 03:25:07;;;;;;;11.97;3.43;;;5.20;99.90;;;;;;5036993;28;20207;-67
2022/11/27 03:27:38;;;;;;;8.50;3.90;;;5.20;99.90;;;;;;5036578;28;20221;-67
2022/11/27 03:30:09;;;;;;;11.83;4.00;;;5.20;99.90;;;;;;5033833;28;20211;-67
2022/11/27 03:32:36;;;;;;;7.43;3.67;;;5.20;99.90;;;;;;5046572;28;20205;-67
2022/11/27 03:35:05;;;;;;;8.23;3.47;;;5.10;99.90;;;;;;5015635;28;21193;-67
2022/11/27 03:37:32;;;;;;;4.90;3.20;;;5.00;99.90;;;;;;5040737;28;20248;-67
2022/11/27 03:39:59;;;;;;;5.33;3.53;;;5.10;99.90;;;;;;5032484;28;20240;-67
2022/11/27 03:42:30;;;;;;;10.73;3.73;;;5.00;99.90;;;;;;5036316;28;20694;-68
2022/11/27 03:45:05;;;;;;;11.73;3.97;;;5.00;99.90;;;;;;5034257;28;20218;-67
2022/11/27 03:47:46;;;;;;;13.53;4.70;;;4.90;99.90;;;;;;5046294;28;20228;-67
2022/11/27 03:50:25;;;;;;;5.83;3.57;;;5.00;99.90;;;;;;5044409;28;20644;-67
2022/11/27 03:53:00;;;;;;;7.13;3.90;;;4.90;99.90;;;;;;5011351;28;20833;-67
2022/11/27 03:55:34;;;;;;;10.13;4.23;;;5.00;99.90;;;;;;5029739;28;20205;-67
2022/11/27 03:58:05;;;;;;;13.00;4.77;;;4.90;99.90;;;;;;5034262;28;20200;-67
2022/11/27 04:00:38;;;;;;;10.57;5.00;;;5.10;99.90;;;;;;5035367;28;20197;-67
2022/11/27 04:03:09;;;;;;;14.60;5.20;;;5.00;99.90;;;;;;5040162;28;20212;-67
2022/11/27 04:05:36;;;;;;;10.67;5.30;;;5.10;99.90;;;;;;5044395;28;20201;-67
2022/11/27 04:08:03;;;;;;;10.20;5.47;;;5.10;99.90;;;;;;5006940;28;20231;-67
2022/11/27 04:10:30;;;;;;;9.83;5.23;;;5.10;99.90;;;;;;5029877;28;20228;-67
2022/11/27 04:12:57;;;;;;;18.40;5.37;;;5.10;99.90;;;;;;5034159;28;20216;-67
2022/11/27 04:15:24;;;;;;;9.67;4.70;;;5.00;99.90;;;;;;5037826;28;20211;-67
2022/11/27 04:17:50;;;;;;;8.07;4.80;;;5.10;99.90;;;;;;5033542;28;20235;-67
2022/11/27 04:20:19;;;;;;;10.30;5.47;;;5.00;99.90;;;;;;5044862;28;20193;-67
2022/11/27 04:22:45;;;;;;;9.30;5.50;;;5.00;99.90;;;;;;5016660;28;20796;-66
2022/11/27 04:25:12;;;;;;;9.07;5.23;;;5.00;99.90;;;;;;5033058;28;21066;-67
2022/11/27 04:27:39;;;;;;;10.13;5.27;;;5.00;99.90;;;;;;5032058;28;20599;-67
2022/11/27 04:30:07;;;;;;;9.87;5.80;;;4.90;99.90;;;;;;5031649;28;20204;-67
2022/11/27 04:32:34;;;;;;;10.30;5.80;;;4.90;99.90;;;;;;5033585;28;20216;-67
2022/11/27 04:35:00;;;;;;;11.53;6.63;;;5.00;99.90;;;;;;5045641;28;20671;-67
2022/11/27 04:37:29;;;;;;;14.67;6.10;;;5.00;99.90;;;;;;5015910;28;20205;-67
2022/11/27 04:39:56;;;;;;;19.77;6.60;;;5.00;99.90;;;;;;5037654;28;20256;-64
2022/11/27 04:42:22;;;;;;;17.13;7.57;;;5.10;99.90;;;;;;5031074;28;20204;-66
2022/11/27 04:44:49;;;;;;;22.07;7.40;;;5.00;99.90;;;;;;5028446;28;22414;-66
2022/11/27 04:47:16;;;;;;;10.40;6.63;;;4.90;99.90;;;;;;5030864;28;20226;-65
2022/11/27 04:49:43;;;;;;;12.17;6.90;;;4.90;99.90;;;;;;5039072;28;20190;-65
2022/11/27 04:52:10;;;;;;;12.67;6.37;;;5.00;99.90;;;;;;5037739;28;20197;-64
2022/11/27 04:54:38;;;;;;;15.40;6.50;;;4.90;99.90;;;;;;5003936;28;20197;-67
2022/11/27 04:57:06;;;;;;;11.33;6.60;;;5.00;99.90;;;;;;5031183;28;20208;-67
2022/11/27 04:59:33;;;;;;;11.70;6.03;;;5.00;99.90;;;;;;5030648;28;20199;-68
2022/11/27 05:01:59;;;;;;;12.63;6.70;;;4.90;99.90;;;;;;5029973;28;20199;-67
2022/11/27 05:04:26;;;;;;;11.20;6.70;;;5.00;99.90;;;;;;5039358;28;20193;-67
2022/11/27 05:06:53;;;;;;;19.27;6.63;;;4.90;99.90;;;;;;5039077;28;20204;-67
2022/11/27 05:09:20;;;;;;;13.53;6.50;;;5.00;99.90;;;;;;5014407;28;20229;-69
2022/11/27 05:11:49;;;;;;;12.57;6.57;;;5.00;99.90;;;;;;5023482;28;20282;-67
2022/11/27 05:14:16;;;;;;;13.27;6.80;;;4.90;99.90;;;;;;5037096;28;20214;-67
2022/11/27 05:16:45;;;;;;;16.67;7.53;;;4.90;99.90;;;;;;5023927;28;20761;-67
2022/11/27 05:19:13;;;;;;;19.43;7.20;;;4.90;99.90;;;;;;5046430;28;20215;-67
2022/11/27 05:21:40;;;;;;;25.37;6.77;;;4.90;99.90;;;;;;5044223;28;20282;-67
2022/11/27 05:24:08;;;;;;;14.47;6.83;;;4.90;99.90;;;;;;5020160;28;20673;-67
2022/11/27 05:26:35;;;;;;;13.37;6.80;;;4.80;99.90;;;;;;5030639;28;20219;-67
2022/11/27 05:29:03;;;;;;;9.83;6.27;;;4.90;99.90;;;;;;5025388;28;20228;-67
2022/11/27 05:31:30;;;;;;;13.33;6.80;;;4.90;99.90;;;;;;5026576;28;20201;-67
2022/11/27 05:33:57;;;;;;;12.57;6.27;;;4.90;99.90;;;;;;5034697;28;20212;-67
2022/11/27 05:36:24;;;;;;;14.47;6.93;;;4.90;99.90;;;;;;5038078;28;20753;-67
2022/11/27 05:38:51;;;;;;;11.47;6.50;;;4.90;99.90;;;;;;5040234;28;20207;-67
2022/11/27 05:41:18;;;;;;;11.87;6.27;;;4.90;99.90;;;;;;5017223;28;20227;-67
2022/11/27 05:43:44;;;;;;;10.93;6.63;;;4.90;99.90;;;;;;5024825;28;20204;-67
2022/11/27 05:46:16;;;;;;;13.13;6.70;;;4.80;99.90;;;;;;5030097;28;20206;-66
2022/11/27 05:48:43;;;;;;;18.53;7.57;;;4.90;99.90;;;;;;5029972;28;22567;-67
2022/11/27 05:51:10;;;;;;;10.27;5.90;;;4.80;99.90;;;;;;5039976;28;20200;-67
2022/11/27 05:53:37;;;;;;;11.10;6.00;;;4.90;99.90;;;;;;5037259;28;20204;-67
2022/11/27 05:56:06;;;;;;;12.37;6.20;;;4.90;99.90;;;;;;5009460;28;20214;-67
2022/11/27 05:58:33;;;;;;;8.13;5.13;;;4.80;99.90;;;;;;5029057;28;20240;-66
2022/11/27 06:01:00;;;;;;;12.40;5.97;;;4.70;99.90;;;;;;5017746;28;20964;-68
2022/11/27 06:03:28;;;;;;;11.10;6.27;;;4.70;99.90;;;;;;5040645;28;20193;-67
2022/11/27 06:05:55;;;;;;;10.77;5.37;;;4.70;99.90;;;;;;5024999;28;20211;-67
2022/11/27 06:08:21;;;;;;;10.23;6.03;;;4.70;99.90;;;;;;5041161;28;20221;-67
2022/11/27 06:10:48;;;;;;;11.77;5.97;;;4.70;99.90;;;;;;5009853;28;20205;-68
2022/11/27 06:13:16;;;;;;;8.13;5.53;;;4.60;99.90;;;;;;5035011;28;20300;-67
2022/11/27 06:15:42;;;;;;;8.40;4.80;;;4.60;99.90;;;;;;5027021;28;20224;-67
2022/11/27 06:18:11;;;;;;;11.13;5.13;;;4.60;99.90;;;;;;5041234;28;20211;-67
2022/11/27 06:20:39;;;;;;;9.10;5.80;;;4.60;99.90;;;;;;5032339;28;20209;-67
2022/11/27 06:23:06;;;;;;;7.87;5.60;;;4.60;99.90;;;;;;5047460;28;20199;-67
2022/11/27 06:25:32;;;;;;;11.57;6.57;;;4.60;99.90;;;;;;5017781;28;20213;-67
2022/11/27 06:27:59;;;;;;;15.10;6.77;;;4.50;99.90;;;;;;5037148;28;20523;-67
2022/11/27 06:30:26;;;;;;;13.13;7.13;;;4.60;99.90;;;;;;5033715;28;20201;-67
2022/11/27 06:32:53;;;;;;;11.70;6.03;;;4.60;99.90;;;;;;5031294;28;20211;-67
2022/11/27 06:35:20;;;;;;;12.90;6.50;;;4.60;99.90;;;;;;5034025;28;20208;-67
2022/11/27 06:37:48;;;;;;;12.27;6.10;;;4.60;99.90;;;;;;5043319;28;20201;-67
2022/11/27 06:40:15;;;;;;;8.97;5.63;;;4.70;99.90;;;;;;5005844;28;20229;-68
2022/11/27 06:42:42;;;;;;;14.40;6.70;;;4.70;99.90;;;;;;5017949;28;20214;-68
2022/11/27 06:45:10;;;;;;;15.87;6.23;;;4.60;99.90;;;;;;5000300;28;20225;-67
2022/11/27 06:47:36;;;;;;;14.27;6.73;;;4.70;99.90;;;;;;5011219;28;20316;-67
2022/11/27 06:50:04;;;;;;;12.43;6.33;;;4.70;99.90;;;;;;5015908;28;20218;-67
2022/11/27 06:52:31;;;;;;;10.97;6.27;;;4.70;99.90;;;;;;5017518;28;20225;-67
2022/11/27 06:54:59;;;;;;;12.70;6.37;;;4.60;99.90;;;;;;5020214;28;20232;-67
2022/11/27 06:57:26;;;;;;;11.40;6.03;;;4.60;99.90;;;;;;5000790;28;20228;-67
2022/11/27 06:59:53;;;;;;;13.63;6.77;;;4.60;99.90;;;;;;5014112;28;20214;-67
2022/11/27 07:02:20;;;;;;;14.83;6.53;;;4.60;99.90;;;;;;5019970;28;20222;-67
2022/11/27 07:04:47;;;;;;;9.90;6.93;;;4.60;99.90;;;;;;5009159;28;20703;-66
2022/11/27 07:07:14;;;;;;;10.47;6.60;;;4.60;99.90;;;;;;5008598;28;20439;-67
2022/11/27 07:09:41;;;;;;;15.37;5.73;;;4.50;99.90;;;;;;5020349;28;20232;-67
2022/11/27 07:12:10;;;;;;;9.93;6.50;;;4.50;99.90;;;;;;4988693;28;20294;-67
2022/11/27 07:14:36;;;;;;;11.47;6.83;;;4.50;99.90;;;;;;5010930;28;20594;-66
2022/11/27 07:17:03;;;;;;;11.77;6.57;;;4.50;99.90;;;;;;5007560;28;20253;-66
2022/11/27 07:19:30;;;;;;;11.70;6.07;;;4.50;99.90;;;;;;5003666;28;20233;-67
2022/11/27 07:21:57;;;;;;;15.27;7.10;;;4.50;99.90;;;;;;5011159;28;20201;-66
2022/11/27 07:24:24;;;;;;;10.40;6.40;;;4.50;99.90;;;;;;5025176;28;20202;-67
2022/11/27 07:26:50;;;;;;;14.47;6.13;;;4.50;99.90;;;;;;5019982;28;20329;-67
2022/11/27 07:29:18;;;;;;;11.60;6.27;;;4.50;99.90;;;;;;4990906;28;20230;-67
2022/11/27 07:31:45;;;;;;;10.77;6.40;;;4.50;99.90;;;;;;5004036;28;20206;-65
2022/11/27 07:34:12;;;;;;;11.83;6.60;;;4.50;99.90;;;;;;5005517;28;21485;-66
2022/11/27 07:36:39;;;;;;;10.30;6.10;;;4.50;99.90;;;;;;5018997;28;20218;-66
2022/11/27 07:39:06;;;;;;;10.83;6.53;;;4.50;99.90;;;;;;5009197;28;20205;-65
2022/11/27 07:41:32;;;;;;;10.70;6.00;;;4.50;99.90;;;;;;5056035;23;20228;-66
2022/11/27 07:43:59;;;;;;;11.87;6.23;;;4.50;99.90;;;;;;5027861;28;20228;-67
2022/11/27 07:46:28;;;;;;;10.50;5.60;;;4.50;99.90;;;;;;5057889;28;20204;-66
2022/11/27 07:48:55;;;;;;;10.17;6.33;;;4.50;99.90;;;;;;5048383;28;20232;-66
2022/11/27 07:51:22;;;;;;;10.90;6.03;;;4.50;99.90;;;;;;5053702;28;20224;-67
2022/11/27 07:53:50;;;;;;;9.33;5.67;;;4.50;99.90;;;;;;5053426;28;20207;-67
2022/11/27 07:56:18;;;;;;;9.13;6.50;;;4.50;99.90;;;;;;5059219;28;20197;-67
2022/11/27 07:58:45;;;;;;;10.80;6.37;;;4.50;99.90;;;;;;5034166;28;21212;-67
2022/11/27 08:01:13;;;;;;;12.90;5.57;;;4.50;99.90;;;;;;5062876;28;20662;-66
2022/11/27 08:03:43;;;;;;;13.50;6.27;;;4.40;99.90;;;;;;5050116;28;20201;-67
2022/11/27 08:06:16;;;;;;;10.13;6.50;;;4.60;99.90;;;;;;5047113;28;20253;-67
2022/11/27 08:08:43;;;;;;;14.83;6.37;;;4.60;99.90;;;;;;5029202;28;20316;-67
2022/11/27 08:11:19;;;;;;;10.93;7.07;;;4.50;99.90;;;;;;5055995;28;20219;-66
2022/11/27 08:13:47;;;;;;;14.13;7.73;;;4.60;99.90;;;;;;5054127;28;21052;-67
2022/11/27 08:16:13;;;;;;;10.03;6.90;;;4.60;99.90;;;;;;5034238;28;20238;-66
2022/11/27 08:18:42;;;;;;;13.77;7.03;;;4.60;99.90;;;;;;5049332;28;20232;-67
2022/11/27 08:21:09;;;;;;;14.37;7.23;;;4.70;99.90;;;;;;5046825;28;20221;-67
2022/11/27 08:23:36;;;;;;;13.30;7.00;;;4.70;99.90;;;;;;5046508;28;20235;-67
2022/11/27 08:26:06;;;;;;;13.73;6.63;;;4.80;99.90;;;;;;5066555;28;20204;-67
2022/11/27 08:28:32;;;;;;;12.90;6.80;;;4.80;99.90;;;;;;5050854;28;20229;-67
2022/11/27 08:31:00;;;;;;;19.20;7.43;;;4.80;99.90;;;;;;5031227;28;20702;-67
2022/11/27 08:33:28;;;;;;;14.47;7.17;;;4.80;99.90;;;;;;5056320;28;20224;-67
2022/11/27 08:35:56;;;;;;;16.47;7.47;;;4.80;99.90;;;;;;5047082;28;20224;-68
2022/11/27 08:38:23;;;;;;;12.60;7.00;;;4.80;99.90;;;;;;5047937;28;20547;-67
2022/11/27 08:40:57;;;;;;;14.27;6.50;;;4.90;99.90;;;;;;5053796;28;20239;-67
2022/11/27 08:43:25;;;;;;;15.83;7.03;;;4.90;99.90;;;;;;5045221;28;20220;-67
2022/11/27 08:45:52;;;;;;;19.20;8.97;;;5.00;99.90;;;;;;5020011;28;20227;-66
2022/11/27 08:48:19;;;;;;;37.30;16.07;;;5.00;99.90;;;;;;5058190;28;20223;-66
2022/11/27 08:50:47;;;;;;;32.87;12.80;;;5.00;99.90;;;;;;5051597;28;20217;-66
2022/11/27 08:53:16;;;;;;;21.77;11.87;;;5.10;99.90;;;;;;5049416;28;20211;-66
2022/11/27 08:55:43;;;;;;;18.80;9.77;;;5.20;99.90;;;;;;5047873;28;20245;-66
2022/11/27 08:58:10;;;;;;;16.07;8.43;;;5.30;99.90;;;;;;5064694;28;20219;-66
2022/11/27 09:00:38;;;;;;;17.40;9.37;;;5.40;99.90;;;;;;5045503;28;20235;-65
2022/11/27 09:03:05;;;;;;;14.83;8.77;;;5.50;99.90;;;;;;5019876;28;20790;-67
2022/11/27 09:05:33;;;;;;;23.60;8.83;;;5.50;99.90;;;;;;5036574;28;20224;-67
2022/11/27 09:08:01;;;;;;;14.93;7.40;;;5.50;99.90;;;;;;5047572;28;20228;-66
2022/11/27 09:10:29;;;;;;;18.87;9.13;;;5.60;99.90;;;;;;5051165;28;20227;-66
2022/11/27 09:12:58;;;;;;;13.50;7.20;;;5.60;99.90;;;;;;5064777;28;20227;-66
2022/11/27 09:15:24;;;;;;;17.27;7.97;;;5.60;99.90;;;;;;5051651;28;20212;-66
2022/11/27 09:17:51;;;;;;;11.67;7.53;;;5.60;99.90;;;;;;5025415;28;20213;-67
2022/11/27 09:20:19;;;;;;;16.33;8.30;;;5.60;99.90;;;;;;5049014;28;20303;-67
2022/11/27 09:22:45;;;;;;;16.33;8.33;;;5.70;99.90;;;;;;5034486;28;20239;-66
2022/11/27 09:25:12;;;;;;;15.93;7.50;;;5.60;99.90;;;;;;5031468;28;20228;-66
2022/11/27 09:27:40;;;;;;;15.37;7.80;;;5.60;99.90;;;;;;5043675;28;20227;-66
2022/11/27 09:30:08;;;;;;;18.07;7.70;;;5.70;99.90;;;;;;5047952;28;20229;-66
2022/11/27 09:32:35;;;;;;;14.77;7.43;;;5.70;99.90;;;;;;5025339;28;20224;-66
2022/11/27 09:35:02;;;;;;;17.07;7.23;;;5.70;99.90;;;;;;5052440;28;20228;-67
2022/11/27 09:37:30;;;;;;;12.00;7.60;;;5.70;99.90;;;;;;5047067;28;20223;-67
2022/11/27 09:39:58;;;;;;;12.23;7.03;;;5.70;99.90;;;;;;5037500;28;20236;-66
2022/11/27 09:42:35;;;;;;;13.20;7.20;;;5.80;99.90;;;;;;5046853;28;20198;-67
2022/11/27 09:45:11;;;;;;;12.23;7.10;;;5.80;99.90;;;;;;5056594;28;20218;-66
2022/11/27 09:47:41;;;;;;;12.27;6.93;;;5.80;99.90;;;;;;5016800;28;20273;-66
2022/11/27 09:50:14;;;;;;;15.60;7.30;;;5.80;99.90;;;;;;5057339;28;20231;-67
2022/11/27 09:52:45;;;;;;;11.87;7.23;;;5.80;99.90;;;;;;5042588;28;20767;-67
2022/11/27 09:55:17;;;;;;;10.17;6.80;;;5.90;99.90;;;;;;5045159;28;20235;-66
2022/11/27 09:57:53;;;;;;;11.23;7.30;;;5.90;99.90;;;;;;5048573;28;20245;-67
2022/11/27 10:00:24;;;;;;;11.27;6.37;;;5.90;99.90;;;;;;5053129;28;24245;-66
2022/11/27 10:02:50;;;;;;;13.97;6.97;;;5.90;99.90;;;;;;5014859;28;20227;-67
2022/11/27 10:05:20;;;;;;;11.90;6.70;;;5.90;99.90;;;;;;5058535;28;20231;-67
2022/11/27 10:08:10;;;;;;;14.30;8.77;;;5.70;99.90;;;;;;5044849;28;20750;-67
2022/11/27 10:10:43;;;;;;;13.33;8.00;;;5.90;99.90;;;;;;5051270;28;20712;-66
2022/11/27 10:13:23;;;;;;;14.50;8.33;;;5.90;99.90;;;;;;5052868;28;21308;-65
2022/11/27 10:15:56;;;;;;;12.63;7.83;;;6.00;99.90;;;;;;5054875;28;20219;-67
2022/11/27 10:18:32;;;;;;;13.03;8.13;;;6.00;99.90;;;;;;5027180;28;20234;-68
2022/11/27 10:21:03;;;;;;;14.23;7.90;;;6.00;99.90;;;;;;5060594;28;20235;-67
2022/11/27 10:23:41;;;;;;;14.00;8.07;;;5.90;99.90;;;;;;5051452;28;20216;-67
2022/11/27 10:26:15;;;;;;;12.03;7.70;;;5.90;99.90;;;;;;5031732;28;20227;-66
2022/11/27 10:28:50;;;;;;;11.40;7.30;;;5.90;99.90;;;;;;5046978;28;20226;-66
2022/11/27 10:31:25;;;;;;;17.13;8.93;;;5.90;99.90;;;;;;5033105;28;20283;-69
2022/11/27 10:33:55;;;;;;;16.70;9.47;;;5.90;99.90;;;;;;5033438;28;20222;-66
2022/11/27 10:36:30;;;;;;;16.47;8.67;;;5.90;99.90;;;;;;5030239;28;20227;-67
2022/11/27 10:39:00;;;;;;;16.73;7.83;;;5.90;99.90;;;;;;5041104;28;20721;-67
2022/11/27 10:41:37;;;;;;;14.27;7.17;;;5.90;99.90;;;;;;5045562;28;20638;-67
2022/11/27 10:44:22;;;;;;;12.40;7.07;;;6.00;99.90;;;;;;5043002;28;20231;-67
2022/11/27 10:46:53;;;;;;;10.63;6.47;;;6.00;99.90;;;;;;5044929;28;20306;-67
2022/11/27 10:49:19;;;;;;;12.77;7.07;;;6.00;99.90;;;;;;5045965;28;20239;-67
2022/11/27 10:51:46;;;;;;;16.70;7.00;;;5.90;99.90;;;;;;5031671;28;20220;-67
2022/11/27 10:54:23;;;;;;;11.77;6.87;;;6.00;99.90;;;;;;5041518;28;20568;-67
2022/11/27 10:57:22;;;;;;;11.70;6.33;;;6.00;99.90;;;;;;5049401;28;20234;-66
2022/11/27 11:00:01;;;;;;;11.13;7.07;;;6.00;99.90;;;;;;5016124;28;20223;-66
2022/11/27 11:02:31;;;;;;;10.20;6.07;;;6.00;99.90;;;;;;5057842;28;21059;-66
2022/11/27 11:05:08;;;;;;;9.47;5.73;;;6.10;99.90;;;;;;5055354;28;20216;-66
2022/11/27 11:07:35;;;;;;;16.33;6.93;;;6.10;99.90;;;;;;5037434;28;20207;-66
2022/11/27 11:10:02;;;;;;;13.27;6.93;;;6.10;99.90;;;;;;5031933;28;20227;-66
2022/11/27 11:12:29;;;;;;;10.67;7.13;;;6.10;99.90;;;;;;5053869;28;20201;-67
2022/11/27 11:14:57;;;;;;;15.17;8.20;;;6.20;99.90;;;;;;5045645;28;20230;-67
2022/11/27 11:17:26;;;;;;;12.33;7.17;;;6.20;99.90;;;;;;5057816;28;20224;-66
2022/11/27 11:19:54;;;;;;;12.70;6.50;;;6.10;99.90;;;;;;5037771;28;20223;-67
2022/11/27 11:22:21;;;;;;;14.23;6.67;;;6.20;99.90;;;;;;5041379;28;20648;-67
2022/11/27 11:24:50;;;;;;;9.73;6.90;;;6.20;99.90;;;;;;5052819;28;20220;-65
2022/11/27 11:27:21;;;;;;;13.03;6.83;;;6.20;99.90;;;;;;5053462;28;20705;-66
2022/11/27 11:29:51;;;;;;;11.10;6.60;;;6.30;99.90;;;;;;5049142;28;20977;-66
2022/11/27 11:32:23;;;;;;;10.83;7.50;;;6.30;99.90;;;;;;5060232;28;20555;-66
2022/11/27 11:34:53;;;;;;;11.73;7.40;;;6.30;99.90;;;;;;5038120;28;20681;-66
2022/11/27 11:37:25;;;;;;;12.40;7.10;;;6.30;99.90;;;;;;5031130;28;20234;-65
2022/11/27 11:40:01;;;;;;;10.23;6.30;;;6.40;99.90;;;;;;5054291;28;21206;-67
2022/11/27 11:42:29;;;;;;;12.20;6.70;;;6.40;99.90;;;;;;5028224;28;20201;-67
2022/11/27 11:45:03;;;;;;;13.00;6.87;;;6.40;99.90;;;;;;5037293;28;20235;-67
2022/11/27 11:47:30;;;;;;;10.50;6.90;;;6.30;99.90;;;;;;5031323;28;20209;-67
2022/11/27 11:49:57;;;;;;;13.67;7.50;;;6.40;99.90;;;;;;5027271;28;20653;-68
2022/11/27 11:52:35;;;;;;;11.23;5.87;;;6.40;99.90;;;;;;5025453;28;20228;-67
2022/11/27 11:55:13;;;;;;;10.30;5.87;;;6.40;99.90;;;;;;5015705;28;20915;-67
2022/11/27 11:57:54;;;;;;;11.70;6.10;;;6.40;99.90;;;;;;5023886;28;20197;-67
2022/11/27 12:00:23;;;;;;;14.80;6.90;;;6.40;99.90;;;;;;5038155;28;20860;-68
2022/11/27 12:03:11;;;;;;;10.33;6.20;;;6.40;99.90;;;;;;5025012;28;20201;-66
2022/11/27 12:05:50;;;;;;;9.63;6.13;;;6.40;99.90;;;;;;5023108;28;20204;-66
2022/11/27 12:08:44;;;;;;;10.07;6.40;;;6.40;99.90;;;;;;5002047;28;20219;-65
2022/11/27 12:11:14;;;;;;;12.07;6.20;;;6.40;99.90;;;;;;5041834;28;20235;-67
2022/11/27 12:14:02;;;;;;;10.70;6.40;;;6.40;99.90;;;;;;5024990;28;20953;-68
2022/11/27 12:16:38;;;;;;;7.50;5.70;;;6.50;99.90;;;;;;5031161;28;20224;-67
2022/11/27 12:19:27;;;;;;;8.17;5.83;;;6.50;99.90;;;;;;5015064;28;20216;-67
2022/11/27 12:22:02;;;;;;;10.87;6.27;;;6.50;99.90;;;;;;5038295;28;20216;-67
2022/11/27 12:24:41;;;;;;;9.70;6.27;;;6.50;99.90;;;;;;4999213;28;24166;-68
2022/11/27 12:27:18;;;;;;;12.27;6.27;;;6.50;99.90;;;;;;5040183;28;20311;-67
2022/11/27 12:30:04;;;;;;;10.70;6.70;;;6.50;99.90;;;;;;5032578;28;20221;-68
2022/11/27 12:33:02;;;;;;;12.73;6.13;;;6.60;99.90;;;;;;5027849;28;20262;-66
2022/11/27 12:35:32;;;;;;;10.00;6.60;;;6.50;99.90;;;;;;5019471;28;21727;-65
2022/11/27 12:38:27;;;;;;;8.47;5.87;;;6.50;99.90;;;;;;5021892;28;20239;-66
2022/11/27 12:41:19;;;;;;;14.17;6.33;;;6.50;99.90;;;;;;5006866;28;20236;-67
2022/11/27 12:43:50;;;;;;;9.03;5.27;;;6.60;99.90;;;;;;5027909;28;20227;-67
2022/11/27 12:46:23;;;;;;;8.93;5.73;;;6.50;99.90;;;;;;5059547;28;20201;-68
2022/11/27 12:48:55;;;;;;;10.47;5.90;;;6.50;99.90;;;;;;5034851;28;20219;-66
2022/11/27 12:51:26;;;;;;;13.37;6.37;;;6.60;99.90;;;;;;5033051;28;20224;-66
2022/11/27 12:53:59;;;;;;;9.83;5.80;;;6.60;99.90;;;;;;5038083;28;20220;-66
2022/11/27 12:56:32;;;;;;;9.47;5.77;;;6.60;99.90;;;;;;5022742;28;20451;-66
2022/11/27 12:59:04;;;;;;;11.20;5.97;;;6.60;99.90;;;;;;5047869;28;20204;-65
2022/11/27 13:01:38;;;;;;;9.43;5.87;;;6.60;99.90;;;;;;5032446;28;20199;-66
2022/11/27 13:04:16;;;;;;;9.50;5.90;;;6.60;99.90;;;;;;5049073;28;20208;-66